Αναφορές METAR

 

LGKZ - Kozani (civ/Army, Greece
Distance from station: SW 41km
Updated: 18/05/2022 11:50
Partly cloudy
Partly cloudy
 Wind from N
Wind: N 20 km/h
Temperature: 23°C
Dew Point: 9°C
Humidity: 41%
Barometer: 1016 hPa
Clouds: Partly cloudy
Visibility: 10 km
Cloud details: Few Clouds 762 m
Partly cloudy 2134 m
2022/05/18 08:50 LGKZ 180850Z 35011KT 9999 FEW025 SCT070 23/09 Q1016
LGTS - Thessaloniki/Mik, Greece
Distance from station: E 64km
Updated: 18/05/2022 12:20
Few Clouds
Few Clouds
 Wind from NNW
Wind: NNW 26 km/h, Gust: 44 km/h
Temperature: 28°C
Heat Index: 28°C
Dew Point: 15°C
Humidity: 45%
Barometer: 1013 hPa
Clouds: Few Clouds
Visibility: 10 km
Cloud details: Few Clouds 610 m
2022/05/18 09:20 LGTS 180920Z 34014G24KT 9999 FEW020 28/15 Q1013 NOSIG
 
LGIO - Ioannina, Greece
Distance from station: SW 149km
Updated: 18/05/2022 12:20
Few Clouds
Few Clouds
 Wind from ESE
Wind: ESE 6 km/h
Temperature: 24°C
Dew Point: 15°C
Humidity: 57%
Barometer: 1015 hPa
Clouds: Few Clouds
Visibility: 10 km
Cloud details: Few Clouds 610 m
2022/05/18 09:20 LGIO 180920Z 11003KT 9999 FEW020 24/15 Q1015
LGBL - Nea Anchialos, Greece
Distance from station: SSE 154km
Updated: 18/05/2022 12:20
Few Clouds
Few Clouds
 Wind from E
Wind: E 11 km/h
Temperature: 27°C
Heat Index: 27°C
Dew Point: 14°C
Humidity: 45%
Barometer: 1012 hPa
Clouds: Few Clouds
Visibility: 10 km
Cloud details: Few Clouds 914 m
2022/05/18 09:20 LGBL 180920Z 10006KT 9999 FEW030 27/14 Q1012
 
LGSK - Skiathos Island, Greece
Distance from station: SE 185km
Updated: 18/05/2022 11:50
Few Clouds
Few Clouds
 Wind from NNW
Wind: NNW 19 km/h
Temperature: 25°C
Dew Point: 18°C
Humidity: 65%
Barometer: 1012 hPa
Clouds: Few Clouds
Visibility: 10 km
Cloud details: Few Clouds 549 m
2022/05/18 08:50 LGSK 180850Z 34010KT 9999 FEW018 25/18 Q1012
LGKV - Kavala/Chrisoupo, Greece
Distance from station: ENE 208km
Updated: 18/05/2022 12:20
Partly cloudy
Partly cloudy
 Wind from E
Wind: E 15 km/h
Temperature: 24°C
Dew Point: 15°C
Humidity: 57%
Barometer: 1012 hPa
Clouds: Partly cloudy
Visibility: 10 km
Cloud details: Few Clouds 914 m
Partly cloudy 2438 m
2022/05/18 09:20 LGKV 180920Z 08008KT 9999 FEW030TCU SCT080 24/15 Q1012
 
LGPZ - Preveza/Aktion, Greece
Distance from station: SW 217km
Updated: 18/05/2022 12:20
Few Clouds
Few Clouds
 Wind from W
Wind: W 11 km/h
Temperature: 24°C
Dew Point: 19°C
Humidity: 74%
Barometer: 1014 hPa
Clouds: Few Clouds
Visibility: 10 km
Cloud details: Few Clouds 457 m
2022/05/18 09:20 LGPZ 180920Z 27006KT 9999 FEW015 24/19 Q1014
LGKR - Ioannis Kapodist, Greece
Distance from station: WSW 219km
Updated: 18/05/2022 11:50
Partly cloudy
Partly cloudy
 Wind from SE
Wind: SE 13 km/h
Temperature: 24°C
Dew Point: 19°C
Humidity: 74%
Barometer: 1014 hPa
Clouds: Partly cloudy
Visibility: 10 km
Cloud details: Partly cloudy 366 m
2022/05/18 08:50 LGKR 180850Z 14007KT 9999 SCT012 24/19 Q1014 NOSIG
 
LGSY - Skiros, Greece
Distance from station: SE 261km
Updated: 18/05/2022 11:50
Clear
Clear
 Wind from WNW
Wind: WNW 19 km/h
Temperature: 24°C
Dew Point: 17°C
Humidity: 65%
Barometer: 1013 hPa
Summary: Clear
Visibility: greater than 10 km
2022/05/18 08:50 LGSY 180850Z 29010KT CAVOK 24/17 Q1013 RMK FEW200 BLU
LGLM - Limnos Island Ar, Greece
Distance from station: ESE 266km
Updated: 18/05/2022 12:20
Clear
Clear
 Wind from S
Wind: S 11 km/h
Temperature: 24°C
Dew Point: 18°C
Humidity: 69%
Barometer: 1012 hPa
Summary: Clear
Visibility: greater than 10 km
2022/05/18 09:20 LGLM 180920Z 17006KT CAVOK 24/18 Q1012
 
LGRX - Araxos (civ/Afb), Greece
Distance from station: SSW 271km
Updated: 18/05/2022 12:20
Few Clouds
Few Clouds
 Wind from W
Wind: W 7 km/h
Temperature: 25°C
Dew Point: 18°C
Humidity: 65%
Barometer: 1013 hPa
Clouds: Few Clouds
Visibility: 10 km
Cloud details: Few Clouds 610 m
2022/05/18 09:20 LGRX 180920Z 28004KT 9999 FEW020 25/18 Q1013
LGEL - Elefsis (hel-Afb, Greece
Distance from station: SSE 297km
Updated: 18/05/2022 12:20
Few Clouds
Few Clouds
 Wind from S
Wind: S 17 km/h
Temperature: 29°C
Dew Point: 13°C
Humidity: 37%
Barometer: 1012 hPa
Clouds: Few Clouds
Visibility: 10 km
Cloud details: Few Clouds 762 m
2022/05/18 09:20 LGEL 180920Z 19009KT 9999 FEW025 29/13 Q1012
 
LGAD - Andravida (civ/A, Greece
Distance from station: SSW 301km
Updated: 18/05/2022 12:20
Few Clouds
Few Clouds
 Wind from NW
Wind: NW 9 km/h
Temperature: 25°C
Dew Point: 18°C
Humidity: 65%
Barometer: 1013 hPa
Clouds: Few Clouds
Visibility: 10 km
Cloud details: Few Clouds 549 m
2022/05/18 09:20 LGAD 180920Z 31005KT 9999 FEW018 25/18 Q1013
LGKF - Kefallinia, Greece
Distance from station: SSW 305km
Updated: 18/05/2022 11:50
Clear
Clear
 Wind from WNW
Wind: WNW 9 km/h
Temperature: 25°C
Dew Point: 19°C
Humidity: 69%
Barometer: 1014 hPa
Summary: Clear
Visibility: greater than 10 km
2022/05/18 08:50 LGKF 180850Z 30005KT CAVOK 25/19 Q1014